Time;durP1;ratioP1;P1;durP2;ratioP2;P2;SDS_P1;SDS_P2;PMS_P1;PMS_P2;Temp;Humidity;BMP_temperature;BMP_pressure;BME280_temperature;BME280_humidity;BME280_pressure;Samples;Min_cycle;Max_cycle;Signal;HPM_P1;HPM_P2
2021/04/06 00:02:28;;;;;;;1.60;1.50;;;2.00;98.20;;;;;;4952905;28;20765;-83
2021/04/06 00:04:58;;;;;;;1.60;1.47;;;2.00;98.20;;;;;;4961665;28;20467;-83
2021/04/06 00:07:26;;;;;;;1.60;1.50;;;2.10;98.20;;;;;;4952154;28;20526;-79
2021/04/06 00:09:59;;;;;;;1.60;1.47;;;2.10;98.20;;;;;;5150653;23;20500;-79
2021/04/06 00:12:29;;;;;;;1.53;1.30;;;2.10;98.20;;;;;;4991679;28;20523;-80
2021/04/06 00:15:18;;;;;;;1.57;1.43;;;2.20;98.20;;;;;;5015679;28;20463;-81
2021/04/06 00:17:50;;;;;;;1.60;1.50;;;2.20;98.20;;;;;;4999643;28;20496;-83
2021/04/06 00:20:33;;;;;;;1.60;1.40;;;2.20;98.20;;;;;;4998893;28;20486;-81
2021/04/06 00:23:06;;;;;;;1.60;1.50;;;2.20;98.20;;;;;;4996316;28;20473;-83
2021/04/06 00:28:56;;;;;;;1.70;1.60;;;2.20;98.20;;;;;;4982975;28;20475;-84
2021/04/06 00:31:23;;;;;;;1.70;1.60;;;2.30;98.20;;;;;;4976892;28;20477;-79
2021/04/06 00:33:52;;;;;;;1.60;1.40;;;2.30;98.20;;;;;;4977389;28;20479;-80
2021/04/06 00:36:28;;;;;;;1.60;1.50;;;2.30;98.20;;;;;;4983697;28;20476;-79
2021/04/06 00:41:48;;;;;;;1.57;1.40;;;2.30;98.20;;;;;;4979095;28;20601;-82
2021/04/06 00:44:17;;;;;;;1.60;1.40;;;2.30;98.20;;;;;;4992925;28;20497;-80
2021/04/06 00:46:56;;;;;;;1.60;1.50;;;2.40;98.20;;;;;;4974912;28;20513;-82
2021/04/06 00:49:33;;;;;;;1.60;1.40;;;2.40;98.20;;;;;;4992320;28;20480;-81
2021/04/06 00:52:03;;;;;;;1.70;1.60;;;2.40;98.20;;;;;;4987758;28;20519;-82
2021/04/06 00:54:33;;;;;;;1.60;1.40;;;2.40;98.20;;;;;;4992891;28;20473;-84
2021/04/06 00:57:43;;;;;;;1.60;1.50;;;2.50;98.20;;;;;;4984799;28;20481;-81
2021/04/06 01:00:30;;;;;;;1.60;1.40;;;2.40;98.20;;;;;;4988936;28;20485;-82
2021/04/06 01:03:16;;;;;;;1.60;1.40;;;2.50;98.20;;;;;;4971354;28;20477;-82
2021/04/06 01:06:22;;;;;;;1.60;1.40;;;2.40;98.20;;;;;;4992373;28;20461;-81
2021/04/06 01:08:52;;;;;;;1.60;1.40;;;2.40;98.20;;;;;;4970539;28;20571;-81
2021/04/06 01:11:22;;;;;;;1.60;1.40;;;2.50;98.20;;;;;;4978644;28;20622;-81
2021/04/06 01:13:49;;;;;;;1.60;1.40;;;2.50;98.20;;;;;;4976387;28;20465;-81
2021/04/06 01:16:16;;;;;;;1.60;1.40;;;2.50;98.20;;;;;;4983664;28;20543;-80
2021/04/06 01:19:28;;;;;;;1.60;1.40;;;2.50;98.20;;;;;;4997350;23;20577;-83
2021/04/06 01:22:19;;;;;;;1.60;1.50;;;2.50;98.20;;;;;;4970156;28;20467;-80
2021/04/06 01:24:57;;;;;;;1.70;1.60;;;2.60;98.20;;;;;;5032970;28;20506;-83
2021/04/06 01:27:27;;;;;;;1.57;1.40;;;2.60;98.20;;;;;;5014740;28;20489;-81
2021/04/06 01:32:55;;;;;;;1.60;1.40;;;2.60;98.20;;;;;;4990194;28;20484;-80
2021/04/06 01:35:35;;;;;;;1.60;1.50;;;2.60;98.20;;;;;;5015238;28;20623;-82
2021/04/06 01:38:14;;;;;;;1.70;1.60;;;2.60;98.20;;;;;;5004062;28;20913;-82
2021/04/06 01:40:54;;;;;;;1.70;1.60;;;2.60;98.20;;;;;;5017127;28;20495;-80
2021/04/06 01:43:29;;;;;;;1.60;1.40;;;2.60;98.20;;;;;;4992002;28;20534;-84
2021/04/06 01:46:40;;;;;;;1.60;1.40;;;2.60;98.20;;;;;;5001413;28;20469;-81
2021/04/06 01:49:10;;;;;;;1.60;1.40;;;2.60;98.20;;;;;;5019002;28;20484;-84
2021/04/06 01:51:38;;;;;;;1.57;1.40;;;2.60;98.20;;;;;;5003820;28;20540;-80
2021/04/06 01:54:09;;;;;;;1.60;1.43;;;2.60;98.20;;;;;;5002803;28;20560;-81
2021/04/06 01:56:52;;;;;;;1.60;1.50;;;2.60;98.20;;;;;;4996797;28;20497;-82
2021/04/06 01:59:33;;;;;;;1.60;1.50;;;2.60;98.20;;;;;;5007725;28;20490;-82
2021/04/06 02:02:24;;;;;;;1.60;1.50;;;2.60;98.20;;;;;;4992225;28;20481;-78
2021/04/06 02:04:56;;;;;;;1.60;1.40;;;2.60;98.20;;;;;;4997619;28;21048;-79
2021/04/06 02:07:34;;;;;;;1.60;1.40;;;2.60;98.20;;;;;;4992722;28;20583;-79
2021/04/06 02:10:04;;;;;;;1.60;1.50;;;2.60;98.20;;;;;;5018454;28;20478;-79
2021/04/06 02:12:37;;;;;;;1.60;1.50;;;2.60;98.20;;;;;;5012955;28;20558;-79
2021/04/06 02:15:10;;;;;;;1.60;1.40;;;2.60;98.20;;;;;;5007803;28;21004;-79
2021/04/06 02:17:47;;;;;;;1.60;1.50;;;2.50;98.20;;;;;;4991249;28;20487;-79
2021/04/06 02:20:39;;;;;;;1.60;1.50;;;2.50;98.20;;;;;;5011256;28;20487;-78
2021/04/06 02:23:05;;;;;;;1.60;1.40;;;2.50;98.20;;;;;;4978291;28;20488;-77
2021/04/06 02:25:32;;;;;;;1.60;1.50;;;2.50;98.20;;;;;;5006107;28;20559;-78
2021/04/06 02:27:59;;;;;;;1.63;1.53;;;2.50;98.20;;;;;;4988502;28;20568;-78
2021/04/06 02:30:30;;;;;;;1.60;1.40;;;2.50;98.20;;;;;;5008112;28;21007;-79
2021/04/06 02:32:57;;;;;;;1.60;1.50;;;2.50;98.20;;;;;;4999122;28;20476;-78
2021/04/06 02:35:38;;;;;;;1.60;1.50;;;2.50;98.20;;;;;;5006154;28;20472;-79
2021/04/06 02:38:05;;;;;;;1.60;1.50;;;2.50;98.20;;;;;;4992058;28;20519;-78
2021/04/06 02:40:31;;;;;;;1.60;1.50;;;2.50;98.20;;;;;;5019889;28;20471;-79
2021/04/06 02:43:26;;;;;;;1.60;1.50;;;2.50;98.20;;;;;;4994401;28;20480;-78
2021/04/06 02:46:04;;;;;;;1.60;1.40;;;2.50;98.20;;;;;;4994148;28;20469;-79
2021/04/06 02:48:34;;;;;;;1.60;1.50;;;2.50;98.20;;;;;;5015984;28;20819;-79
2021/04/06 02:51:01;;;;;;;1.63;1.53;;;2.40;98.20;;;;;;4996847;28;20549;-79
2021/04/06 02:53:53;;;;;;;1.60;1.50;;;2.40;98.20;;;;;;5014195;28;20515;-77
2021/04/06 02:56:34;;;;;;;1.60;1.43;;;2.40;98.20;;;;;;4993822;28;21012;-78
2021/04/06 02:59:19;;;;;;;1.60;1.50;;;2.40;98.20;;;;;;5002725;28;20491;-78
2021/04/06 03:01:47;;;;;;;1.60;1.50;;;2.40;98.20;;;;;;4990744;28;20752;-78
2021/04/06 03:04:27;;;;;;;1.60;1.50;;;2.40;98.20;;;;;;4995502;28;21163;-78
2021/04/06 03:07:07;;;;;;;1.60;1.40;;;2.30;98.20;;;;;;4986731;28;20520;-77
2021/04/06 03:09:33;;;;;;;1.63;1.53;;;2.30;98.20;;;;;;5000380;28;20492;-78
2021/04/06 03:12:00;;;;;;;1.60;1.50;;;2.30;98.20;;;;;;4991084;28;20489;-78
2021/04/06 03:14:28;;;;;;;1.57;1.40;;;2.30;98.20;;;;;;5008703;28;20488;-81
2021/04/06 03:16:55;;;;;;;1.70;1.60;;;2.30;98.20;;;;;;4993439;28;20476;-78
2021/04/06 03:22:48;;;;;;;1.60;1.50;;;2.30;98.20;;;;;;4991320;28;20492;-81
2021/04/06 03:25:14;;;;;;;1.60;1.50;;;2.30;98.20;;;;;;5020798;28;20534;-81
2021/04/06 03:27:46;;;;;;;1.60;1.50;;;2.30;98.20;;;;;;4990315;28;20488;-78
2021/04/06 03:30:15;;;;;;;1.60;1.50;;;2.30;98.20;;;;;;5004250;28;20572;-78
2021/04/06 03:32:42;;;;;;;1.60;1.40;;;2.30;98.20;;;;;;4982619;28;20796;-81
2021/04/06 03:35:11;;;;;;;1.60;1.43;;;2.30;98.20;;;;;;5010348;28;20460;-81
2021/04/06 03:37:37;;;;;;;1.60;1.40;;;2.30;98.20;;;;;;4989144;28;20477;-81
2021/04/06 03:40:07;;;;;;;1.60;1.50;;;2.30;98.20;;;;;;5011275;28;20491;-78
2021/04/06 03:42:34;;;;;;;1.60;1.40;;;2.30;98.20;;;;;;5002297;28;20495;-81
2021/04/06 03:45:08;;;;;;;1.60;1.40;;;2.20;98.20;;;;;;5001819;28;20465;-77
2021/04/06 03:47:55;;;;;;;1.57;1.40;;;2.20;98.20;;;;;;4988721;28;20481;-78
2021/04/06 03:51:33;;;;;;;1.60;1.40;;;2.20;98.20;;;;;;5004942;28;20544;-80
2021/04/06 03:54:33;;;;;;;1.70;1.60;;;2.20;98.20;;;;;;4931730;28;20588;-77
2021/04/06 03:57:00;;;;;;;1.60;1.43;;;2.20;98.20;;;;;;4958391;28;20483;-77
2021/04/06 03:59:29;;;;;;;1.60;1.40;;;2.20;98.20;;;;;;5000686;28;21007;-79
2021/04/06 04:01:59;;;;;;;1.60;1.50;;;2.20;98.20;;;;;;4996869;28;20477;-76
2021/04/06 04:04:26;;;;;;;1.60;1.50;;;2.20;98.20;;;;;;5007816;28;20465;-80
2021/04/06 04:07:01;;;;;;;1.60;1.43;;;2.20;98.20;;;;;;5003755;28;20546;-79
2021/04/06 04:09:28;;;;;;;1.60;1.40;;;2.20;98.20;;;;;;5001451;28;20476;-78
2021/04/06 04:11:54;;;;;;;1.60;1.50;;;2.20;98.20;;;;;;4997917;28;20484;-77
2021/04/06 04:14:20;;;;;;;1.60;1.40;;;2.20;98.20;;;;;;5011182;28;20466;-76
2021/04/06 04:16:47;;;;;;;1.60;1.50;;;2.20;98.20;;;;;;4993489;28;20473;-78
2021/04/06 04:19:13;;;;;;;1.60;1.40;;;2.10;98.20;;;;;;5006743;28;20518;-76
2021/04/06 04:21:40;;;;;;;1.60;1.40;;;2.10;98.20;;;;;;4997764;28;20476;-77
2021/04/06 04:24:08;;;;;;;1.60;1.40;;;2.10;98.20;;;;;;5012231;28;20732;-79
2021/04/06 04:26:41;;;;;;;1.60;1.50;;;2.10;98.20;;;;;;4995349;28;20539;-79
2021/04/06 04:29:07;;;;;;;1.70;1.60;;;2.10;98.20;;;;;;5005392;28;20490;-78
2021/04/06 04:31:36;;;;;;;1.60;1.40;;;2.10;98.20;;;;;;5001018;28;20863;-79
2021/04/06 04:34:35;;;;;;;1.60;1.50;;;2.10;98.20;;;;;;5011346;28;20461;-79
2021/04/06 04:37:16;;;;;;;1.60;1.50;;;2.10;98.20;;;;;;4955859;28;20468;-79
2021/04/06 04:39:43;;;;;;;1.60;1.40;;;2.00;98.20;;;;;;5009592;28;20491;-77
2021/04/06 04:42:14;;;;;;;1.60;1.50;;;2.00;98.20;;;;;;5003597;28;20515;-77
2021/04/06 04:44:44;;;;;;;1.60;1.50;;;2.00;98.20;;;;;;5012236;28;20533;-79
2021/04/06 04:47:23;;;;;;;1.60;1.50;;;2.00;98.20;;;;;;4999706;28;20511;-79
2021/04/06 04:49:56;;;;;;;1.60;1.50;;;1.90;98.20;;;;;;5006937;28;21036;-78
2021/04/06 04:52:47;;;;;;;1.60;1.40;;;1.90;98.20;;;;;;4999571;28;20747;-79
2021/04/06 04:55:37;;;;;;;1.60;1.40;;;1.90;98.20;;;;;;5007950;28;20777;-76
2021/04/06 04:58:04;;;;;;;1.60;1.50;;;1.90;98.20;;;;;;4971364;28;20485;-77
2021/04/06 05:00:46;;;;;;;1.60;1.50;;;1.90;98.20;;;;;;5010260;28;20563;-78
2021/04/06 05:06:42;;;;;;;1.60;1.50;;;1.90;98.20;;;;;;4880318;29;20496;-78
2021/04/06 05:09:13;;;;;;;1.80;1.70;;;1.90;98.20;;;;;;4919983;29;21069;-77
2021/04/06 05:11:48;;;;;;;1.60;1.40;;;2.00;98.20;;;;;;4924242;29;20640;-77
2021/04/06 05:14:26;;;;;;;1.70;1.60;;;2.00;98.20;;;;;;4948027;28;20965;-79
2021/04/06 05:16:53;;;;;;;1.60;1.50;;;2.00;98.20;;;;;;4992910;28;20999;-76
2021/04/06 05:19:27;;;;;;;1.60;1.40;;;2.00;98.20;;;;;;5004530;28;20491;-78
2021/04/06 05:21:54;;;;;;;1.60;1.50;;;2.00;98.20;;;;;;4998427;28;20484;-80
2021/04/06 05:24:37;;;;;;;1.60;1.50;;;2.00;98.20;;;;;;4999849;28;20476;-81
2021/04/06 05:27:09;;;;;;;1.60;1.50;;;2.00;98.20;;;;;;4985544;28;20847;-77
2021/04/06 05:33:03;;;;;;;1.60;1.50;;;2.00;98.20;;;;;;4908446;29;20599;-80
2021/04/06 05:35:31;;;;;;;1.60;1.50;;;2.00;98.20;;;;;;4946131;28;20471;-78
2021/04/06 05:38:01;;;;;;;1.60;1.40;;;2.00;98.20;;;;;;4995577;28;20472;-76
2021/04/06 05:40:29;;;;;;;1.60;1.50;;;2.00;98.20;;;;;;5011479;28;21038;-79
2021/04/06 05:43:27;;;;;;;1.60;1.47;;;2.00;98.20;;;;;;4988956;28;20472;-77
2021/04/06 05:49:33;;;;;;;1.60;1.50;;;2.00;98.20;;;;;;4967583;28;21005;-79
2021/04/06 05:52:31;;;;;;;1.60;1.40;;;2.00;98.20;;;;;;4997516;28;20485;-76
2021/04/06 05:55:08;;;;;;;1.60;1.40;;;2.10;98.20;;;;;;5008978;28;20471;-77
2021/04/06 05:58:29;;;;;;;1.60;1.40;;;2.10;98.20;;;;;;5003688;28;20485;-79
2021/04/06 06:01:17;;;;;;;1.60;1.40;;;2.10;98.20;;;;;;4943681;28;20469;-77
2021/04/06 06:03:53;;;;;;;1.60;1.40;;;2.20;98.20;;;;;;4954241;28;20580;-76
2021/04/06 06:06:25;;;;;;;1.60;1.40;;;2.20;98.20;;;;;;4948909;28;20473;-78
2021/04/06 06:08:57;;;;;;;1.70;1.60;;;2.20;98.20;;;;;;4976286;28;20578;-77
2021/04/06 06:11:23;;;;;;;1.60;1.50;;;2.30;98.20;;;;;;4981590;28;20981;-78
2021/04/06 06:13:50;;;;;;;1.60;1.50;;;2.30;98.20;;;;;;4987757;28;21001;-76
2021/04/06 06:16:21;;;;;;;1.60;1.50;;;2.40;98.20;;;;;;4999012;28;20475;-78
2021/04/06 06:18:59;;;;;;;1.60;1.40;;;2.40;98.20;;;;;;4998824;28;20927;-78
2021/04/06 06:21:44;;;;;;;1.60;1.50;;;2.40;98.20;;;;;;4980379;28;20763;-79
2021/04/06 06:24:12;;;;;;;1.60;1.50;;;2.50;98.20;;;;;;4991530;28;20473;-77
2021/04/06 06:26:39;;;;;;;1.57;1.40;;;2.50;98.20;;;;;;4991225;28;20494;-76
2021/04/06 06:29:14;;;;;;;1.60;1.40;;;2.40;98.20;;;;;;5014159;23;21016;-78
2021/04/06 06:31:53;;;;;;;1.60;1.50;;;2.40;98.20;;;;;;4996936;28;20491;-78
2021/04/06 06:34:28;;;;;;;1.57;1.40;;;2.50;98.20;;;;;;4996214;28;20495;-80
2021/04/06 06:37:44;;;;;;;;;;;;;;;;;;;;;
2021/04/06 06:40:13;;;;;;;1.60;1.50;;;2.50;98.20;;;;;;4991926;28;20583;-84
2021/04/06 06:42:42;;;;;;;1.80;1.70;;;2.50;98.20;;;;;;4967792;28;20484;-79
2021/04/06 06:45:26;;;;;;;1.53;1.40;;;2.60;98.20;;;;;;4981873;28;20553;-77
2021/04/06 06:47:57;;;;;;;1.60;1.40;;;2.60;98.20;;;;;;4974009;28;20485;-80
2021/04/06 06:50:29;;;;;;;1.60;1.40;;;2.70;98.20;;;;;;4984733;28;20516;-80
2021/04/06 06:52:57;;;;;;;1.87;1.77;;;2.70;98.20;;;;;;4959120;28;20475;-78
2021/04/06 06:55:38;;;;;;;1.60;1.40;;;2.80;98.20;;;;;;4983307;28;20556;-78
2021/04/06 06:58:06;;;;;;;1.53;1.33;;;2.80;98.20;;;;;;4964288;28;20494;-80
2021/04/06 07:00:40;;;;;;;1.53;1.40;;;2.90;98.20;;;;;;4991767;28;20502;-81
2021/04/06 07:03:15;;;;;;;1.60;1.40;;;2.90;98.20;;;;;;4974423;28;20480;-80
2021/04/06 07:05:42;;;;;;;1.60;1.40;;;2.90;98.20;;;;;;4978520;28;20472;-76
2021/04/06 07:08:29;;;;;;;1.60;1.33;;;2.90;98.20;;;;;;4958473;28;21083;-79
2021/04/06 07:14:14;;;;;;;1.60;1.30;;;3.10;98.20;;;;;;4986537;28;20517;-82
2021/04/06 07:16:52;;;;;;;1.60;1.40;;;3.20;98.20;;;;;;4916081;29;20537;-78
2021/04/06 07:19:42;;;;;;;1.70;1.60;;;3.30;98.20;;;;;;4986467;28;20508;-77
2021/04/06 07:22:26;;;;;;;1.60;1.30;;;3.30;98.20;;;;;;4990105;28;20464;-79
2021/04/06 07:25:06;;;;;;;1.60;1.43;;;3.50;98.20;;;;;;4998255;28;20469;-79
2021/04/06 07:27:33;;;;;;;1.60;1.40;;;3.70;98.20;;;;;;4985716;28;20890;-80
2021/04/06 07:33:03;;;;;;;1.60;1.40;;;4.00;98.20;;;;;;4948313;28;20581;-77
2021/04/06 07:35:31;;;;;;;1.60;1.30;;;4.00;98.20;;;;;;4983274;28;20957;-78
2021/04/06 07:38:06;;;;;;;1.60;1.30;;;4.20;98.20;;;;;;4969516;28;20540;-82
2021/04/06 07:43:47;;;;;;;1.60;1.40;;;4.70;98.20;;;;;;4963766;28;20559;-82
2021/04/06 07:49:38;;;;;;;1.50;1.30;;;4.80;98.20;;;;;;4975599;28;20476;-76
2021/04/06 07:52:22;;;;;;;1.57;1.30;;;4.80;98.20;;;;;;4980386;28;20488;-78
2021/04/06 07:55:12;;;;;;;1.60;1.43;;;5.00;97.90;;;;;;4994066;28;20459;-80
2021/04/06 07:57:47;;;;;;;1.57;1.30;;;5.10;95.80;;;;;;4970162;28;20481;-76
2021/04/06 08:00:50;;;;;;;1.57;1.30;;;5.10;96.00;;;;;;4988608;28;20494;-76
2021/04/06 08:03:53;;;;;;;1.60;1.30;;;5.10;95.60;;;;;;4956295;28;21044;-76
2021/04/06 08:06:25;;;;;;;1.57;1.30;;;5.10;96.00;;;;;;4975113;28;20897;-75
2021/04/06 08:12:33;;;;;;;1.57;1.30;;;5.40;96.60;;;;;;4946022;28;20524;-76
2021/04/06 08:15:15;;;;;;;1.57;1.20;;;5.60;95.30;;;;;;5003762;28;20543;-76
2021/04/06 08:17:46;;;;;;;1.57;1.30;;;5.80;94.00;;;;;;4980168;28;20490;-82
2021/04/06 08:27:34;;;;;;;1.60;1.30;;;6.20;92.10;;;;;;4940775;28;20483;-76
2021/04/06 08:30:36;;;;;;;1.50;1.20;;;6.10;92.50;;;;;;4989413;28;21041;-76
2021/04/06 08:33:35;;;;;;;1.60;1.30;;;6.10;92.80;;;;;;4983332;28;20507;-80
2021/04/06 08:36:22;;;;;;;1.57;1.20;;;6.20;92.60;;;;;;4964075;28;20461;-78
2021/04/06 08:38:58;;;;;;;1.53;1.20;;;6.30;92.00;;;;;;4974097;28;21165;-77
2021/04/06 08:41:46;;;;;;;1.50;1.20;;;6.30;91.80;;;;;;4977428;28;20684;-77
2021/04/06 08:44:19;;;;;;;1.53;1.20;;;6.30;90.70;;;;;;4987774;28;20861;-78
2021/04/06 08:46:53;;;;;;;1.60;1.20;;;6.20;90.40;;;;;;4972745;28;20473;-75
2021/04/06 08:49:22;;;;;;;1.53;1.20;;;6.20;91.70;;;;;;4998123;28;20622;-75
2021/04/06 08:51:52;;;;;;;1.53;1.30;;;6.30;92.00;;;;;;4973958;28;20518;-75
2021/04/06 08:54:21;;;;;;;1.57;1.30;;;6.40;92.10;;;;;;4990492;28;20702;-78
2021/04/06 08:56:49;;;;;;;1.50;1.20;;;6.60;92.40;;;;;;4963910;28;20512;-77
2021/04/06 08:59:35;;;;;;;3.20;2.90;;;6.80;90.80;;;;;;4984323;28;20566;-76
2021/04/06 09:02:10;;;;;;;1.53;1.20;;;6.80;89.70;;;;;;4967670;28;21035;-77
2021/04/06 09:05:16;;;;;;;1.70;1.60;;;6.80;89.50;;;;;;4993273;28;20804;-77
2021/04/06 09:07:48;;;;;;;1.53;1.20;;;6.70;89.40;;;;;;4969144;28;20484;-77
2021/04/06 09:10:16;;;;;;;1.57;1.23;;;6.70;89.70;;;;;;5388259;22;20878;-74
2021/04/06 09:13:30;;;;;;;1.60;1.30;;;6.90;89.90;;;;;;4954423;28;20600;-75
2021/04/06 09:15:59;;;;;;;1.50;1.10;;;7.10;88.10;;;;;;4952052;28;20998;-75
2021/04/06 09:18:26;;;;;;;1.60;1.30;;;7.10;87.90;;;;;;4978732;28;20514;-76
2021/04/06 09:21:13;;;;;;;1.50;1.13;;;7.30;88.60;;;;;;4962065;28;20492;-75
2021/04/06 09:23:41;;;;;;;1.53;1.10;;;7.50;89.00;;;;;;4982637;28;20470;-75
2021/04/06 09:26:42;;;;;;;1.57;1.17;;;7.70;87.30;;;;;;4962902;28;20783;-74
2021/04/06 09:29:45;;;;;;;1.50;1.10;;;7.80;85.90;;;;;;4979354;28;20512;-73
2021/04/06 09:32:37;;;;;;;1.53;1.20;;;7.70;86.10;;;;;;4957011;28;20996;-75
2021/04/06 09:35:08;;;;;;;1.50;1.10;;;7.80;87.60;;;;;;4971722;28;20963;-75
2021/04/06 09:37:49;;;;;;;1.60;1.20;;;8.10;87.90;;;;;;4966090;28;20486;-74
2021/04/06 09:40:17;;;;;;;1.50;1.10;;;8.30;84.80;;;;;;4980662;28;20572;-75
2021/04/06 09:42:43;;;;;;;1.53;1.10;;;8.40;83.20;;;;;;4967496;28;20504;-75
2021/04/06 09:45:10;;;;;;;1.60;1.20;;;8.40;82.90;;;;;;4966579;28;20857;-74
2021/04/06 09:47:40;;;;;;;1.50;1.00;;;8.40;82.40;;;;;;4963166;28;20503;-75
2021/04/06 09:50:10;;;;;;;1.50;1.00;;;8.50;82.60;;;;;;4975007;28;20491;-75
2021/04/06 09:52:38;;;;;;;1.50;1.10;;;8.60;82.10;;;;;;4956367;28;21087;-77
2021/04/06 09:55:07;;;;;;;1.57;1.10;;;8.60;81.40;;;;;;4978158;28;20515;-74
2021/04/06 09:57:36;;;;;;;1.57;1.10;;;8.70;80.90;;;;;;4964777;28;20497;-74
2021/04/06 10:00:31;;;;;;;1.50;1.10;;;8.80;81.60;;;;;;4977592;28;20991;-77
2021/04/06 10:09:54;;;;;;;1.53;1.10;;;8.60;81.90;;;;;;4969960;28;20499;-76
2021/04/06 10:15:40;;;;;;;1.53;1.20;;;8.50;83.30;;;;;;4883467;29;20530;-76
2021/04/06 10:22:37;;;;;;;1.50;1.10;;;9.20;81.60;;;;;;4775732;29;20930;-76
2021/04/06 10:25:06;;;;;;;1.90;1.30;;;9.40;79.60;;;;;;4793581;29;20480;-76
2021/04/06 10:27:38;;;;;;;1.50;1.10;;;9.10;80.20;;;;;;4953397;28;20769;-75
2021/04/06 10:30:11;;;;;;;1.50;1.10;;;8.70;84.30;;;;;;4968181;28;20550;-76
2021/04/06 10:33:38;;;;;;;1.50;1.10;;;8.30;85.80;;;;;;4962388;28;20640;-75
2021/04/06 10:36:34;;;;;;;1.50;1.07;;;8.10;86.80;;;;;;4963810;28;20540;-73
2021/04/06 10:39:03;;;;;;;1.50;1.00;;;8.20;87.20;;;;;;4965809;28;20494;-75
2021/04/06 10:41:34;;;;;;;1.50;1.10;;;8.50;87.20;;;;;;4967386;28;20491;-76
2021/04/06 10:44:37;;;;;;;1.50;1.00;;;8.90;85.00;;;;;;4993690;22;20536;-76
2021/04/06 10:47:58;;;;;;;1.50;1.07;;;9.20;83.10;;;;;;4972901;28;20480;-76
2021/04/06 10:50:29;;;;;;;1.53;1.10;;;9.40;83.30;;;;;;4992579;28;20492;-77
2021/04/06 10:52:55;;;;;;;1.50;1.00;;;9.70;82.90;;;;;;4986950;28;20477;-75
2021/04/06 10:55:33;;;;;;;1.53;1.10;;;9.80;82.10;;;;;;4993184;28;20883;-76
2021/04/06 11:01:07;;;;;;;1.50;1.10;;;9.90;80.30;;;;;;4908240;28;20469;-75
2021/04/06 11:03:43;;;;;;;1.57;1.10;;;9.70;78.70;;;;;;4997612;28;20452;-74
2021/04/06 11:06:16;;;;;;;1.50;1.10;;;9.50;78.30;;;;;;4981626;28;21064;-75
2021/04/06 11:08:44;;;;;;;1.50;1.00;;;9.50;80.30;;;;;;4990366;28;20481;-75
2021/04/06 11:11:25;;;;;;;1.50;1.00;;;9.40;79.10;;;;;;4982522;28;21424;-75
2021/04/06 11:13:57;;;;;;;1.50;1.10;;;9.10;79.80;;;;;;4989493;28;20519;-76
2021/04/06 11:16:33;;;;;;;1.50;1.00;;;8.20;85.00;;;;;;4965580;28;20489;-76
2021/04/06 11:19:11;;;;;;;1.50;1.10;;;7.30;87.90;;;;;;4994431;28;20491;-79
2021/04/06 11:21:52;;;;;;;1.60;1.23;;;6.50;90.50;;;;;;4985070;28;20480;-77
2021/04/06 11:24:22;;;;;;;1.53;1.17;;;6.00;92.30;;;;;;4989954;28;20905;-80
2021/04/06 11:26:49;;;;;;;1.50;1.20;;;5.60;93.90;;;;;;4982959;28;20564;-77
2021/04/06 11:29:41;;;;;;;1.57;1.20;;;5.40;94.70;;;;;;4999679;28;20863;-80
2021/04/06 11:32:10;;;;;;;1.50;1.20;;;5.30;95.40;;;;;;4919649;28;20487;-79
2021/04/06 11:34:38;;;;;;;1.50;1.20;;;5.20;96.50;;;;;;4991126;28;20476;-79
2021/04/06 11:37:08;;;;;;;1.53;1.23;;;5.30;98.00;;;;;;4966905;28;20496;-77
2021/04/06 11:42:45;;;;;;;1.57;1.20;;;5.40;97.20;;;;;;4962980;28;20479;-82
2021/04/06 11:45:21;;;;;;;1.50;1.20;;;5.30;96.00;;;;;;4969905;28;20491;-79
2021/04/06 11:50:58;;;;;;;1.50;1.30;;;4.90;98.20;;;;;;5032761;23;20504;-79
2021/04/06 11:53:26;;;;;;;1.60;1.40;;;4.70;98.20;;;;;;5010698;28;21298;-80
2021/04/06 11:55:53;;;;;;;1.57;1.30;;;4.30;98.20;;;;;;4994326;28;20518;-78
2021/04/06 11:58:41;;;;;;;1.60;1.40;;;4.00;98.20;;;;;;5009495;28;20787;-81
2021/04/06 12:01:25;;;;;;;1.57;1.30;;;3.80;98.20;;;;;;4989900;28;20827;-77
2021/04/06 12:07:17;;;;;;;1.57;1.30;;;3.40;98.20;;;;;;4980745;28;20467;-80
2021/04/06 12:10:35;;;;;;;1.57;1.30;;;3.20;98.20;;;;;;5265818;22;20504;-80
2021/04/06 12:13:24;;;;;;;1.53;1.40;;;3.20;98.20;;;;;;4987407;28;20486;-83
2021/04/06 12:19:39;;;;;;;1.60;1.40;;;3.70;98.20;;;;;;4849480;29;20479;-80
2021/04/06 12:22:06;;;;;;;1.53;1.30;;;4.00;98.20;;;;;;4864877;29;20569;-78
2021/04/06 12:24:35;;;;;;;1.60;1.40;;;4.30;98.20;;;;;;4895297;29;20553;-81
2021/04/06 12:27:09;;;;;;;1.53;1.30;;;4.70;98.20;;;;;;4894185;28;20902;-83
2021/04/06 12:29:38;;;;;;;1.53;1.27;;;5.10;98.20;;;;;;4985912;28;20499;-83
2021/04/06 12:32:18;;;;;;;1.53;1.27;;;5.60;98.20;;;;;;4981163;28;20489;-79
2021/04/06 12:34:45;;;;;;;1.57;1.20;;;5.90;98.20;;;;;;4991655;28;20468;-76
2021/04/06 12:37:11;;;;;;;1.53;1.20;;;6.20;98.20;;;;;;4975529;28;20484;-75
2021/04/06 12:39:49;;;;;;;1.53;1.30;;;6.60;98.20;;;;;;4980322;28;20515;-78
2021/04/06 12:42:19;;;;;;;1.60;1.27;;;6.70;96.50;;;;;;4969852;28;20485;-74
2021/04/06 12:44:45;;;;;;;1.53;1.23;;;6.80;97.40;;;;;;4986988;28;20896;-75
2021/04/06 12:47:39;;;;;;;1.60;1.40;;;6.80;98.20;;;;;;4976043;28;20492;-75
2021/04/06 12:50:26;;;;;;;1.50;1.20;;;6.80;97.40;;;;;;4980262;28;21086;-77
2021/04/06 12:52:53;;;;;;;1.50;1.20;;;6.90;96.90;;;;;;4976418;28;20974;-78
2021/04/06 12:55:20;;;;;;;1.57;1.10;;;7.10;97.10;;;;;;4991586;28;20484;-78
2021/04/06 12:57:48;;;;;;;1.53;1.30;;;7.20;96.70;;;;;;4961942;28;20488;-75
2021/04/06 13:00:23;;;;;;;1.50;1.20;;;7.30;95.60;;;;;;4992009;28;20812;-76
2021/04/06 13:02:50;;;;;;;1.50;1.20;;;7.40;94.40;;;;;;4973469;28;20488;-74
2021/04/06 13:05:18;;;;;;;1.50;1.20;;;7.20;93.80;;;;;;4987419;28;20470;-78
2021/04/06 13:07:50;;;;;;;1.50;1.20;;;6.80;93.20;;;;;;4964952;28;20991;-77
2021/04/06 13:10:21;;;;;;;1.50;1.20;;;6.10;94.70;;;;;;4986995;28;20858;-75
2021/04/06 13:12:48;;;;;;;1.60;1.30;;;5.70;96.80;;;;;;4970133;28;20669;-75
2021/04/06 13:15:15;;;;;;;1.50;1.20;;;5.60;98.20;;;;;;4981141;28;20527;-75
2021/04/06 13:17:46;;;;;;;1.50;1.20;;;5.80;98.20;;;;;;4965805;28;20604;-76
2021/04/06 13:20:15;;;;;;;1.50;1.20;;;6.20;98.20;;;;;;4987066;28;20495;-76
2021/04/06 13:22:43;;;;;;;1.57;1.23;;;6.70;98.20;;;;;;4970424;28;20477;-76
2021/04/06 13:25:12;;;;;;;1.50;1.20;;;7.00;97.20;;;;;;4984697;28;20465;-77
2021/04/06 13:27:39;;;;;;;1.53;1.20;;;7.30;94.90;;;;;;4968399;28;20835;-77
2021/04/06 13:30:10;;;;;;;1.53;1.20;;;7.50;92.90;;;;;;4989263;28;20604;-76
2021/04/06 13:32:52;;;;;;;1.57;1.20;;;7.80;92.80;;;;;;4971087;28;20485;-77
2021/04/06 13:35:19;;;;;;;1.50;1.10;;;8.10;90.90;;;;;;4982507;28;20558;-76
2021/04/06 13:37:47;;;;;;;1.53;1.10;;;8.20;91.00;;;;;;4972804;28;20857;-76
2021/04/06 13:40:15;;;;;;;1.53;1.10;;;8.50;91.50;;;;;;4987509;28;20496;-76
2021/04/06 13:42:42;;;;;;;1.60;1.20;;;8.80;92.10;;;;;;4973992;28;20920;-77
2021/04/06 13:45:11;;;;;;;1.53;1.10;;;9.10;87.00;;;;;;4990504;28;20756;-77
2021/04/06 13:47:38;;;;;;;1.53;1.10;;;9.10;86.10;;;;;;4978385;28;20488;-75
2021/04/06 13:50:12;;;;;;;1.60;1.20;;;9.10;84.90;;;;;;4976501;28;20562;-75
2021/04/06 13:52:39;;;;;;;1.50;1.10;;;8.80;84.10;;;;;;4967165;28;20512;-77
2021/04/06 13:55:13;;;;;;;1.57;1.20;;;8.10;87.30;;;;;;5020172;23;20504;-75
2021/04/06 13:57:40;;;;;;;1.53;1.20;;;7.20;89.80;;;;;;4997320;28;20627;-78
2021/04/06 14:00:11;;;;;;;1.57;1.10;;;6.40;92.00;;;;;;5010966;28;20626;-79
2021/04/06 14:02:38;;;;;;;1.57;1.20;;;5.80;92.70;;;;;;4992793;28;20543;-77
2021/04/06 14:05:22;;;;;;;1.53;1.20;;;5.30;93.40;;;;;;5009153;28;20468;-76
2021/04/06 14:07:49;;;;;;;1.60;1.30;;;5.00;94.80;;;;;;4999449;28;20476;-79
2021/04/06 14:10:19;;;;;;;1.50;1.20;;;4.90;95.90;;;;;;5010919;28;20484;-77
2021/04/06 14:12:48;;;;;;;1.57;1.20;;;4.80;96.30;;;;;;5005792;28;20554;-77
2021/04/06 14:15:24;;;;;;;1.50;1.20;;;4.80;97.10;;;;;;5011357;28;20884;-80
2021/04/06 14:18:05;;;;;;;1.57;1.23;;;4.90;97.80;;;;;;4994972;28;20873;-81
2021/04/06 14:20:36;;;;;;;1.53;1.20;;;4.90;98.20;;;;;;5013485;28;20494;-79
2021/04/06 14:26:04;;;;;;;1.57;1.30;;;5.10;98.20;;;;;;5008011;28;20452;-79
2021/04/06 14:28:42;;;;;;;1.50;1.20;;;5.40;98.20;;;;;;4983401;28;20541;-78
2021/04/06 14:31:20;;;;;;;1.60;1.20;;;5.50;96.70;;;;;;4996600;28;20473;-77
2021/04/06 14:33:50;;;;;;;1.60;1.30;;;5.60;95.90;;;;;;5018152;28;21007;-81
2021/04/06 14:36:16;;;;;;;1.53;1.20;;;5.70;95.60;;;;;;4997505;28;20507;-80
2021/04/06 14:38:51;;;;;;;1.57;1.20;;;5.60;94.00;;;;;;5003532;28;20499;-79
2021/04/06 14:41:21;;;;;;;1.50;1.20;;;5.60;94.40;;;;;;5002991;28;20479;-78
2021/04/06 14:43:52;;;;;;;1.50;1.20;;;5.60;94.70;;;;;;5015647;28;20460;-81
2021/04/06 14:46:24;;;;;;;1.50;1.27;;;5.80;94.20;;;;;;5000428;28;20475;-78
2021/04/06 14:48:53;;;;;;;1.57;1.30;;;6.10;94.70;;;;;;5003345;28;20488;-76
2021/04/06 14:51:25;;;;;;;1.50;1.20;;;6.10;93.70;;;;;;4994061;28;20500;-81
2021/04/06 14:53:54;;;;;;;1.57;1.20;;;6.10;94.50;;;;;;5004366;28;20488;-79
2021/04/06 14:56:22;;;;;;;1.97;1.87;;;6.10;93.10;;;;;;4994385;28;20472;-77
2021/04/06 14:58:52;;;;;;;1.53;1.20;;;6.00;92.80;;;;;;5012111;28;20503;-78
2021/04/06 15:02:10;;;;;;;1.53;1.23;;;6.00;93.90;;;;;;4998894;28;20508;-78
2021/04/06 15:05:08;;;;;;;1.50;1.20;;;6.00;95.20;;;;;;4994303;28;20500;-77